createdAt,value
2022-09-14T00:01:37.025Z,17.90
2022-09-14T00:06:36.318Z,17.90
2022-09-14T00:11:37.099Z,17.90
2022-09-14T00:16:38.283Z,17.80
2022-09-14T00:21:37.714Z,17.80
2022-09-14T00:26:37.176Z,17.70
2022-09-14T00:31:38.085Z,17.60
2022-09-14T00:36:43.375Z,17.60
2022-09-14T00:41:45.474Z,17.60
2022-09-14T00:46:45.457Z,17.50
2022-09-14T00:51:48.581Z,17.50
2022-09-14T00:56:49.264Z,17.40
2022-09-14T01:01:47.760Z,17.30
2022-09-14T01:06:55.655Z,17.30
2022-09-14T01:12:09.055Z,17.20
2022-09-14T01:17:12.377Z,17.20
2022-09-14T01:22:15.979Z,17.10
2022-09-14T01:27:35.416Z,17.10
2022-09-14T01:32:39.716Z,17.10
2022-09-14T01:37:43.047Z,17.00
2022-09-14T01:42:46.316Z,17.00
2022-09-14T01:47:49.169Z,16.90
2022-09-14T01:52:50.434Z,16.90
2022-09-14T01:57:53.882Z,16.80
2022-09-14T02:02:55.554Z,16.80
2022-09-14T02:07:54.578Z,16.70
2022-09-14T02:12:54.602Z,16.70
2022-09-14T02:17:53.610Z,16.60
2022-09-14T02:22:53.075Z,16.60
2022-09-14T02:27:52.521Z,16.60
2022-09-14T02:33:04.160Z,16.50
2022-09-14T02:38:09.695Z,16.50
2022-09-14T02:43:22.377Z,16.50
2022-09-14T02:48:35.640Z,16.40
2022-09-14T02:53:39.072Z,16.40
2022-09-14T02:58:39.581Z,16.30
2022-09-14T03:03:39.339Z,16.20
2022-09-14T03:08:37.515Z,16.20
2022-09-14T03:13:36.337Z,16.20
2022-09-14T03:18:34.791Z,16.20
2022-09-14T03:23:37.347Z,16.20
2022-09-14T03:28:35.507Z,16.20
2022-09-14T03:33:33.693Z,16.10
2022-09-14T03:38:31.889Z,16.10
2022-09-14T03:43:31.379Z,16.20
2022-09-14T03:48:31.112Z,16.20
2022-09-14T03:53:29.417Z,16.20
2022-09-14T03:58:28.027Z,16.20
2022-09-14T04:03:27.583Z,16.10
2022-09-14T04:08:25.869Z,16.10
2022-09-14T04:13:24.201Z,16.10
2022-09-14T04:18:22.360Z,16.10
2022-09-14T04:23:21.874Z,16.00
2022-09-14T04:28:20.926Z,16.00
2022-09-14T04:33:19.203Z,15.90
2022-09-14T04:38:17.341Z,16.00
2022-09-14T04:43:17.159Z,16.00
2022-09-14T04:48:15.662Z,16.00
2022-09-14T04:53:13.889Z,16.00
2022-09-14T04:58:12.113Z,16.00
2022-09-14T05:03:11.652Z,16.00
2022-09-14T05:08:09.900Z,15.90
2022-09-14T05:13:08.049Z,15.90
2022-09-14T05:18:06.346Z,15.90
2022-09-14T05:23:05.911Z,15.90
2022-09-14T05:28:04.840Z,15.80
2022-09-14T05:33:02.989Z,15.80
2022-09-14T05:38:01.122Z,15.80
2022-09-14T05:43:00.602Z,15.80
2022-09-14T05:48:04.825Z,15.80
2022-09-14T05:53:03.440Z,15.80
2022-09-14T05:58:03.002Z,15.80
2022-09-14T06:03:01.177Z,15.90
2022-09-14T06:07:59.449Z,15.90
2022-09-14T06:12:57.672Z,16.00
2022-09-14T06:17:57.581Z,16.00
2022-09-14T06:22:56.453Z,16.00
2022-09-14T06:27:55.013Z,16.10
2022-09-14T06:32:53.192Z,16.10
2022-09-14T06:37:54.604Z,16.20
2022-09-14T06:42:52.870Z,16.20
2022-09-14T06:47:51.010Z,16.30
2022-09-14T06:52:49.173Z,16.30
2022-09-14T06:57:50.267Z,16.40
2022-09-14T07:02:51.301Z,16.40
2022-09-14T07:07:53.418Z,16.50
2022-09-14T07:12:54.278Z,16.50
2022-09-14T07:17:52.432Z,16.60
2022-09-14T07:22:50.536Z,16.70
2022-09-14T07:27:48.667Z,16.90
2022-09-14T07:32:48.121Z,16.80
2022-09-14T07:37:46.371Z,16.90
2022-09-14T07:42:44.531Z,17.00
2022-09-14T07:47:42.881Z,17.00
2022-09-14T07:52:42.462Z,17.10
2022-09-14T07:57:55.703Z,17.20
2022-09-14T08:02:56.073Z,17.30
2022-09-14T08:07:59.258Z,17.40
2022-09-14T08:12:57.611Z,17.40
2022-09-14T08:17:55.862Z,17.50
2022-09-14T08:22:53.999Z,17.60
2022-09-14T08:27:53.491Z,17.70
2022-09-14T08:32:52.701Z,17.80
2022-09-14T08:37:50.922Z,17.90
2022-09-14T08:42:50.077Z,18.00
2022-09-14T08:47:49.606Z,18.10
2022-09-14T08:52:49.471Z,18.10
2022-09-14T08:57:52.468Z,18.30
2022-09-14T09:03:25.353Z,18.40
2022-09-14T09:08:32.938Z,18.60
2022-09-14T09:13:35.442Z,18.70
2022-09-14T09:18:39.594Z,18.90
2022-09-14T09:23:38.362Z,19.10
2022-09-14T09:28:40.944Z,19.20
2022-09-14T09:33:40.588Z,19.40
2022-09-14T09:38:47.982Z,19.50
2022-09-14T09:44:01.106Z,19.60
2022-09-14T09:49:03.337Z,19.70
2022-09-14T09:54:09.637Z,19.80
2022-09-14T09:59:28.064Z,19.90
2022-09-14T10:04:29.957Z,20.10
2022-09-14T10:09:30.063Z,20.20
2022-09-14T10:14:32.068Z,20.40
2022-09-14T10:19:32.175Z,20.60
2022-09-14T10:24:30.373Z,20.80
2022-09-14T10:29:36.523Z,21.10
2022-09-14T10:34:36.082Z,21.20
2022-09-14T10:39:40.917Z,21.40
2022-09-14T10:44:50.072Z,21.60
2022-09-14T10:50:03.061Z,21.80
2022-09-14T10:55:31.821Z,22.00
2022-09-14T11:00:36.843Z,22.20
2022-09-14T11:05:40.313Z,22.40
2022-09-14T11:10:52.572Z,22.60
2022-09-14T11:16:06.065Z,22.80
2022-09-14T11:21:15.413Z,22.90
2022-09-14T11:26:18.026Z,23.00
2022-09-14T11:31:21.784Z,23.10
2022-09-14T11:36:26.013Z,23.20
2022-09-14T11:41:29.426Z,23.30
2022-09-14T11:46:32.438Z,23.40
2022-09-14T11:51:37.948Z,23.50
2022-09-14T11:56:36.494Z,23.50
2022-09-14T12:01:36.978Z,23.50
2022-09-14T12:06:49.640Z,23.60
2022-09-14T12:11:49.763Z,23.70
2022-09-14T12:17:22.817Z,23.70
2022-09-14T12:22:33.723Z,23.70
2022-09-14T12:27:34.665Z,23.60
2022-09-14T12:32:43.777Z,23.60
2022-09-14T12:37:43.305Z,23.60
2022-09-14T12:42:41.585Z,23.60
2022-09-14T12:47:51.876Z,23.60
2022-09-14T12:53:25.233Z,23.50
2022-09-14T12:58:51.048Z,23.50
2022-09-14T13:03:51.656Z,23.50
2022-09-14T13:08:55.788Z,23.40
2022-09-14T13:13:54.906Z,23.30
2022-09-14T13:19:02.855Z,23.20
2022-09-14T13:24:02.531Z,23.10
2022-09-14T13:29:02.488Z,23.00
2022-09-14T13:34:02.955Z,22.80
2022-09-14T13:39:04.411Z,22.80
2022-09-14T13:44:02.889Z,22.70
2022-09-14T13:49:01.194Z,22.70
2022-09-14T13:54:16.918Z,22.70
2022-09-14T13:59:19.218Z,22.70
2022-09-14T14:04:35.389Z,22.80
2022-09-14T14:09:53.438Z,22.80
2022-09-14T14:15:00.898Z,22.80
2022-09-14T14:20:01.005Z,22.80
2022-09-14T14:25:13.403Z,22.70
2022-09-14T14:30:17.543Z,22.70
2022-09-14T14:35:17.884Z,22.70
2022-09-14T14:40:17.197Z,22.70
2022-09-14T14:45:19.260Z,22.70
2022-09-14T14:50:19.285Z,22.60
2022-09-14T14:55:17.430Z,22.50
2022-09-14T15:00:20.081Z,22.50
2022-09-14T15:05:18.903Z,22.50
2022-09-14T15:10:18.351Z,22.40
2022-09-14T15:15:20.727Z,22.40
2022-09-14T15:20:20.046Z,22.40
2022-09-14T15:25:19.981Z,22.30
2022-09-14T15:30:19.555Z,22.30
2022-09-14T15:35:17.974Z,22.30
2022-09-14T15:40:16.471Z,22.20
2022-09-14T15:45:14.810Z,22.20
2022-09-14T15:50:14.706Z,22.10
2022-09-14T15:55:13.761Z,22.00
2022-09-14T16:00:14.009Z,22.00
2022-09-14T16:05:12.971Z,22.10
2022-09-14T16:10:12.712Z,21.80
2022-09-14T16:15:11.636Z,21.80
2022-09-14T16:20:10.945Z,21.80
2022-09-14T16:25:09.213Z,21.70
2022-09-14T16:30:10.407Z,21.70
2022-09-14T16:35:09.335Z,21.60
2022-09-14T16:40:08.531Z,21.60
2022-09-14T16:45:09.294Z,21.50
2022-09-14T16:50:07.751Z,21.50
2022-09-14T16:55:06.922Z,21.40
2022-09-14T17:00:05.798Z,21.30
2022-09-14T17:05:05.853Z,21.30
2022-09-14T17:10:04.095Z,21.20
2022-09-14T17:15:02.320Z,21.20
2022-09-14T17:20:00.463Z,21.10
2022-09-14T17:25:00.321Z,21.10
2022-09-14T17:29:58.604Z,21.00
2022-09-14T17:34:56.768Z,20.90
2022-09-14T17:39:55.027Z,20.90
2022-09-14T17:44:54.625Z,20.90
2022-09-14T17:49:52.801Z,20.80
2022-09-14T17:54:51.005Z,20.70
2022-09-14T17:59:49.221Z,20.60
2022-09-14T18:04:48.819Z,20.60
2022-09-14T18:09:46.997Z,20.50
2022-09-14T18:14:45.164Z,20.50
2022-09-14T18:19:43.676Z,20.40
2022-09-14T18:24:43.444Z,20.40
2022-09-14T18:29:42.708Z,20.30
2022-09-14T18:34:41.063Z,20.30
2022-09-14T18:39:39.478Z,20.20
2022-09-14T18:44:39.022Z,20.10
2022-09-14T18:49:37.201Z,20.00
2022-09-14T18:54:35.459Z,19.90
2022-09-14T18:59:33.679Z,19.80
2022-09-14T19:04:33.202Z,19.80
2022-09-14T19:09:31.534Z,19.70
2022-09-14T19:14:29.848Z,19.60
2022-09-14T19:19:28.025Z,19.50
2022-09-14T19:24:30.748Z,19.50
2022-09-14T19:29:29.694Z,19.40
2022-09-14T19:34:29.469Z,19.30
2022-09-14T19:39:29.060Z,19.30
2022-09-14T19:44:27.288Z,19.20
2022-09-14T19:49:27.010Z,19.10
2022-09-14T19:54:27.947Z,19.10
2022-09-14T19:59:26.233Z,19.10
2022-09-14T20:04:24.557Z,19.00
2022-09-14T20:09:24.427Z,18.90
2022-09-14T20:14:25.544Z,18.90
2022-09-14T20:19:25.978Z,18.80
2022-09-14T20:24:26.438Z,18.70
2022-09-14T20:29:28.725Z,18.70
2022-09-14T20:34:27.877Z,18.60
2022-09-14T20:39:26.138Z,18.50
2022-09-14T20:44:25.678Z,18.50
2022-09-14T20:49:24.667Z,18.40
2022-09-14T20:54:23.452Z,18.30
2022-09-14T20:59:22.877Z,18.30
2022-09-14T21:04:24.507Z,18.20
2022-09-14T21:09:24.489Z,18.10
2022-09-14T21:14:23.264Z,18.00
2022-09-14T21:19:26.986Z,18.00
2022-09-14T21:24:25.753Z,17.90
2022-09-14T21:29:25.172Z,17.80
2022-09-14T21:34:24.842Z,17.80
2022-09-14T21:39:24.388Z,17.70
2022-09-14T21:44:22.660Z,17.60
2022-09-14T21:49:22.481Z,17.60
2022-09-14T21:54:22.265Z,17.50
2022-09-14T21:59:22.292Z,17.50
2022-09-14T22:04:22.702Z,17.40
2022-09-14T22:09:24.081Z,17.40
2022-09-14T22:14:25.110Z,17.30
2022-09-14T22:19:25.294Z,17.20
2022-09-14T22:24:31.252Z,17.10
2022-09-14T22:29:31.830Z,17.10
2022-09-14T22:34:30.079Z,17.00
2022-09-14T22:39:29.790Z,17.00
2022-09-14T22:44:28.242Z,16.90
2022-09-14T22:49:26.486Z,16.80
2022-09-14T22:54:24.900Z,16.70
2022-09-14T22:59:24.493Z,16.70
2022-09-14T23:04:22.681Z,16.70
2022-09-14T23:09:22.805Z,16.60
2022-09-14T23:14:21.104Z,16.60
2022-09-14T23:19:20.852Z,16.50
2022-09-14T23:24:19.124Z,16.40
2022-09-14T23:29:18.260Z,16.40
2022-09-14T23:34:16.839Z,16.40
2022-09-14T23:39:16.495Z,16.30
2022-09-14T23:44:14.790Z,16.30
2022-09-14T23:49:14.677Z,16.20
2022-09-14T23:54:13.363Z,16.20
2022-09-14T23:59:14.879Z,16.20
